createdAt,value
2022-08-17T00:00:01.319Z,26.00
2022-08-17T00:02:28.280Z,26.00
2022-08-17T00:04:56.063Z,26.00
2022-08-17T00:07:23.103Z,26.00
2022-08-17T00:09:50.288Z,26.00
2022-08-17T00:12:43.534Z,26.00
2022-08-17T00:15:05.951Z,26.00
2022-08-17T00:17:37.373Z,26.00
2022-08-17T00:20:04.853Z,26.00
2022-08-17T00:22:36.406Z,26.00
2022-08-17T00:25:13.009Z,26.00
2022-08-17T00:27:40.121Z,26.00
2022-08-17T00:30:10.719Z,26.00
2022-08-17T00:33:13.839Z,25.90
2022-08-17T00:35:30.733Z,25.90
2022-08-17T00:37:57.698Z,25.90
2022-08-17T00:40:24.938Z,25.90
2022-08-17T00:42:53.365Z,25.80
2022-08-17T00:45:20.975Z,25.80
2022-08-17T00:47:48.476Z,25.80
2022-08-17T00:50:18.671Z,25.80
2022-08-17T00:52:54.757Z,25.80
2022-08-17T00:55:23.864Z,25.80
2022-08-17T00:57:55.497Z,25.70
2022-08-17T01:00:32.324Z,25.70
2022-08-17T01:03:10.128Z,25.70
2022-08-17T01:05:42.419Z,25.60
2022-08-17T01:08:11.975Z,25.60
2022-08-17T01:10:59.259Z,25.60
2022-08-17T01:13:40.681Z,25.60
2022-08-17T01:16:16.070Z,25.60
2022-08-17T01:18:45.841Z,25.60
2022-08-17T01:21:24.585Z,25.60
2022-08-17T01:23:51.861Z,25.60
2022-08-17T01:26:19.377Z,25.60
2022-08-17T01:28:55.030Z,25.70
2022-08-17T01:31:25.119Z,25.70
2022-08-17T01:33:52.154Z,25.70
2022-08-17T01:36:19.207Z,25.60
2022-08-17T01:38:46.210Z,25.60
2022-08-17T01:41:16.338Z,25.60
2022-08-17T01:44:00.993Z,25.50
2022-08-17T01:46:32.028Z,25.40
2022-08-17T01:48:59.422Z,25.40
2022-08-17T01:51:32.479Z,25.40
2022-08-17T01:54:05.240Z,25.40
2022-08-17T01:56:34.143Z,25.40
2022-08-17T01:59:01.427Z,25.30
2022-08-17T02:01:30.703Z,25.30
2022-08-17T02:04:01.102Z,25.30
2022-08-17T02:06:53.618Z,25.30
2022-08-17T02:09:25.520Z,25.30
2022-08-17T02:11:54.381Z,25.30
2022-08-17T02:14:22.686Z,25.20
2022-08-17T02:16:49.649Z,25.10
2022-08-17T02:19:17.500Z,25.10
2022-08-17T02:21:46.948Z,25.00
2022-08-17T02:24:59.869Z,25.00
2022-08-17T02:27:07.871Z,24.90
2022-08-17T02:29:34.909Z,24.90
2022-08-17T02:32:01.952Z,24.90
2022-08-17T02:34:30.021Z,24.80
2022-08-17T02:36:56.957Z,24.70
2022-08-17T02:39:24.048Z,24.70
2022-08-17T02:41:59.804Z,24.60
2022-08-17T02:44:39.280Z,24.50
2022-08-17T02:47:08.560Z,24.50
2022-08-17T02:49:35.700Z,24.50
2022-08-17T02:52:07.131Z,24.40
2022-08-17T02:54:41.206Z,24.40
2022-08-17T02:57:09.580Z,24.40
2022-08-17T02:59:36.686Z,24.40
2022-08-17T03:02:06.046Z,24.40
2022-08-17T03:04:35.267Z,24.40
2022-08-17T03:07:03.531Z,24.40
2022-08-17T03:09:30.759Z,24.40
2022-08-17T03:12:23.921Z,24.50
2022-08-17T03:14:50.790Z,24.50
2022-08-17T03:17:17.643Z,24.50
2022-08-17T03:19:44.941Z,24.60
2022-08-17T03:22:36.248Z,24.60
2022-08-17T03:24:58.907Z,24.60
2022-08-17T03:27:26.317Z,24.50
2022-08-17T03:29:53.677Z,24.60
2022-08-17T03:32:20.915Z,24.50
2022-08-17T03:34:47.984Z,24.60
2022-08-17T03:37:15.783Z,24.60
2022-08-17T03:39:43.053Z,24.50
2022-08-17T03:42:31.390Z,24.60
2022-08-17T03:45:00.415Z,24.60
2022-08-17T03:47:45.784Z,24.50
2022-08-17T03:50:32.517Z,24.50
2022-08-17T03:53:18.933Z,24.50
2022-08-17T03:56:04.724Z,24.50
2022-08-17T03:58:31.582Z,24.40
2022-08-17T04:00:58.599Z,24.40
2022-08-17T04:03:25.606Z,24.30
2022-08-17T04:05:52.475Z,24.30
2022-08-17T04:08:19.364Z,24.40
2022-08-17T04:10:46.521Z,24.40
2022-08-17T04:13:14.428Z,24.40
2022-08-17T04:15:41.426Z,24.40
2022-08-17T04:18:08.327Z,24.40
2022-08-17T04:20:38.027Z,24.40
2022-08-17T04:23:09.470Z,24.40
2022-08-17T04:25:41.821Z,24.40
2022-08-17T04:28:15.996Z,24.40
2022-08-17T04:30:45.196Z,24.30
2022-08-17T04:33:15.699Z,24.30
2022-08-17T04:35:51.008Z,24.30
2022-08-17T04:38:26.978Z,24.30
2022-08-17T04:41:13.307Z,24.30
2022-08-17T04:43:42.353Z,24.20
2022-08-17T04:46:15.868Z,24.20
2022-08-17T04:48:46.556Z,24.20
2022-08-17T04:51:23.742Z,24.20
2022-08-17T04:53:55.103Z,24.30
2022-08-17T04:56:23.976Z,24.30
2022-08-17T04:58:52.765Z,24.30
2022-08-17T05:01:23.824Z,24.30
2022-08-17T05:03:53.559Z,24.30
2022-08-17T05:06:21.111Z,24.20
2022-08-17T05:08:48.154Z,24.20
2022-08-17T05:11:15.828Z,24.20
2022-08-17T05:13:42.715Z,24.20
2022-08-17T05:16:09.731Z,24.20
2022-08-17T05:18:38.851Z,24.20
2022-08-17T05:21:06.963Z,24.10
2022-08-17T05:23:42.419Z,24.10
2022-08-17T05:26:26.350Z,24.00
2022-08-17T05:28:59.551Z,24.00
2022-08-17T05:31:28.806Z,24.00
2022-08-17T05:33:55.827Z,24.00
2022-08-17T05:36:43.149Z,24.00
2022-08-17T05:39:13.422Z,23.90
2022-08-17T05:41:44.360Z,23.90
2022-08-17T05:44:11.285Z,23.90
2022-08-17T05:46:41.627Z,23.90
2022-08-17T05:49:09.509Z,23.90
2022-08-17T05:52:03.746Z,24.00
2022-08-17T05:54:57.032Z,24.00
2022-08-17T05:58:00.123Z,24.10
2022-08-17T06:00:50.302Z,24.20
2022-08-17T06:03:45.086Z,24.30
2022-08-17T06:06:51.343Z,24.40
2022-08-17T06:09:33.869Z,24.50
2022-08-17T06:12:30.380Z,24.50
2022-08-17T06:15:19.513Z,24.70
2022-08-17T06:17:46.702Z,25.00
2022-08-17T06:20:16.055Z,25.20
2022-08-17T06:22:47.698Z,25.40
2022-08-17T06:25:39.009Z,25.70
2022-08-17T06:28:13.702Z,25.90
2022-08-17T06:30:59.560Z,26.10
2022-08-17T06:33:34.248Z,26.20
2022-08-17T06:36:10.140Z,26.10
2022-08-17T06:39:09.198Z,26.00
2022-08-17T06:42:07.189Z,26.00
2022-08-17T06:45:10.378Z,26.00
2022-08-17T06:47:59.291Z,26.10
2022-08-17T06:50:39.948Z,26.20
2022-08-17T06:53:29.340Z,26.30
2022-08-17T06:56:06.777Z,26.30
2022-08-17T06:58:35.783Z,26.30
2022-08-17T07:01:14.055Z,26.30
2022-08-17T07:03:56.560Z,26.30
2022-08-17T07:06:38.359Z,26.20
2022-08-17T07:09:28.170Z,26.10
2022-08-17T07:12:24.421Z,26.00
2022-08-17T07:15:05.494Z,25.90
2022-08-17T07:17:47.869Z,25.80
2022-08-17T07:20:20.485Z,25.70
2022-08-17T07:23:00.185Z,25.70
2022-08-17T07:25:28.591Z,25.70
2022-08-17T07:27:59.790Z,25.70
2022-08-17T07:30:47.058Z,25.70
2022-08-17T07:33:29.008Z,25.70
2022-08-17T07:35:58.087Z,25.70
2022-08-17T07:38:31.024Z,25.70
2022-08-17T07:40:58.218Z,25.70
2022-08-17T07:43:41.125Z,25.70
2022-08-17T07:46:37.677Z,25.70
2022-08-17T07:49:07.462Z,25.70
2022-08-17T07:51:43.941Z,25.70
2022-08-17T07:54:22.452Z,25.70
2022-08-17T07:56:54.935Z,25.60
2022-08-17T07:59:24.784Z,25.60
2022-08-17T08:01:58.121Z,25.60
2022-08-17T08:04:59.212Z,25.60
2022-08-17T08:07:26.745Z,25.60
2022-08-17T08:10:05.943Z,25.60
2022-08-17T08:12:37.716Z,25.50
2022-08-17T08:15:18.956Z,25.60
2022-08-17T08:17:57.600Z,25.50
2022-08-17T08:20:53.939Z,25.50
2022-08-17T08:23:41.150Z,25.60
2022-08-17T08:26:23.574Z,25.60
2022-08-17T08:29:01.344Z,25.60
2022-08-17T08:31:46.460Z,25.60
2022-08-17T08:34:53.164Z,25.60
2022-08-17T08:37:43.638Z,25.70
2022-08-17T08:40:18.669Z,25.70
2022-08-17T08:43:04.227Z,25.70
2022-08-17T08:45:59.799Z,25.70
2022-08-17T08:49:06.501Z,25.80
2022-08-17T08:51:46.518Z,25.80
2022-08-17T08:54:26.687Z,25.70
2022-08-17T08:57:34.019Z,25.70
2022-08-17T09:00:17.181Z,25.80
2022-08-17T09:03:06.193Z,25.70
2022-08-17T09:05:58.149Z,25.70
2022-08-17T09:08:37.146Z,25.70
2022-08-17T09:11:11.517Z,25.70
2022-08-17T09:13:54.682Z,25.70
2022-08-17T09:16:33.149Z,25.70
2022-08-17T09:19:18.835Z,25.70
2022-08-17T09:22:01.180Z,25.60
2022-08-17T09:24:49.221Z,25.60
2022-08-17T09:27:23.643Z,25.50
2022-08-17T09:30:08.480Z,25.50
2022-08-17T09:32:42.291Z,25.60
2022-08-17T09:35:20.503Z,25.60
2022-08-17T09:38:01.888Z,25.80
2022-08-17T09:40:44.646Z,26.10
2022-08-17T09:43:50.692Z,26.40
2022-08-17T09:46:22.521Z,26.70
2022-08-17T09:49:03.397Z,26.80
2022-08-17T09:51:30.407Z,26.90
2022-08-17T09:54:09.695Z,27.00
2022-08-17T09:57:05.902Z,27.00
2022-08-17T09:59:58.131Z,27.10
2022-08-17T10:02:34.223Z,27.20
2022-08-17T10:05:15.852Z,27.20
2022-08-17T10:07:52.358Z,27.30
2022-08-17T10:10:28.638Z,27.30
2022-08-17T10:13:10.879Z,27.40
2022-08-17T10:15:53.762Z,27.40
2022-08-17T10:18:31.926Z,27.40
2022-08-17T10:21:35.578Z,27.40
2022-08-17T10:25:21.761Z,27.40
2022-08-17T10:27:39.058Z,27.40
2022-08-17T10:30:08.184Z,27.30
2022-08-17T10:32:49.343Z,27.30
2022-08-17T10:35:34.666Z,27.30
2022-08-17T10:38:38.437Z,27.20
2022-08-17T10:41:27.354Z,27.10
2022-08-17T10:44:38.659Z,27.00
2022-08-17T10:47:07.062Z,26.90
2022-08-17T10:49:49.662Z,26.70
2022-08-17T10:52:42.642Z,26.70
2022-08-17T10:55:14.971Z,26.60
2022-08-17T10:57:50.244Z,26.60
2022-08-17T11:00:28.432Z,26.50
2022-08-17T11:02:57.522Z,26.40
2022-08-17T11:05:50.195Z,26.40
2022-08-17T11:08:41.473Z,26.30
2022-08-17T11:11:37.617Z,26.10
2022-08-17T11:14:29.392Z,26.10
2022-08-17T11:17:23.684Z,26.00
2022-08-17T11:20:09.389Z,26.00
2022-08-17T11:23:15.186Z,25.90
2022-08-17T11:26:08.581Z,25.80
2022-08-17T11:28:48.705Z,25.80
2022-08-17T11:31:38.403Z,25.80
2022-08-17T11:34:26.223Z,25.90
2022-08-17T11:37:30.899Z,25.90
2022-08-17T11:40:11.864Z,26.00
2022-08-17T11:42:50.168Z,26.00
2022-08-17T11:45:35.411Z,26.00
2022-08-17T11:48:45.680Z,26.10
2022-08-17T11:51:33.070Z,26.10
2022-08-17T11:56:59.802Z,26.00
2022-08-17T11:59:32.803Z,26.00
2022-08-17T12:02:02.320Z,26.00
2022-08-17T12:04:34.599Z,25.90
2022-08-17T12:07:16.843Z,25.90
2022-08-17T12:09:47.780Z,25.80
2022-08-17T12:12:19.363Z,25.80
2022-08-17T12:15:10.651Z,25.70
2022-08-17T12:17:40.355Z,25.70
2022-08-17T12:20:24.043Z,25.70
2022-08-17T12:23:16.991Z,25.60
2022-08-17T12:25:49.287Z,25.60
2022-08-17T12:28:27.161Z,25.60
2022-08-17T12:30:56.068Z,25.60
2022-08-17T12:33:27.943Z,25.60
2022-08-17T12:36:05.556Z,25.60
2022-08-17T12:38:37.966Z,25.60
2022-08-17T12:41:25.846Z,25.60
2022-08-17T12:44:20.871Z,25.60
2022-08-17T12:47:19.360Z,25.70
2022-08-17T12:49:51.545Z,25.70
2022-08-17T12:52:32.808Z,25.70
2022-08-17T12:55:13.007Z,25.70
2022-08-17T12:57:47.100Z,25.60
2022-08-17T13:00:33.129Z,25.60
2022-08-17T13:03:07.792Z,25.60
2022-08-17T13:05:37.423Z,25.60
2022-08-17T13:08:15.732Z,25.60
2022-08-17T13:10:42.805Z,25.60
2022-08-17T13:13:25.084Z,25.60
2022-08-17T13:16:05.631Z,25.60
2022-08-17T13:18:43.943Z,25.60
2022-08-17T13:21:20.011Z,25.60
2022-08-17T13:24:05.813Z,25.70
2022-08-17T13:26:42.119Z,25.70
2022-08-17T13:29:23.865Z,25.70
2022-08-17T13:32:13.754Z,25.70
2022-08-17T13:35:13.051Z,25.70
2022-08-17T13:37:34.745Z,25.70
2022-08-17T13:40:10.872Z,25.80
2022-08-17T13:42:51.843Z,25.80
2022-08-17T13:45:36.341Z,25.80
2022-08-17T13:48:13.626Z,25.80
2022-08-17T13:50:59.585Z,25.70
2022-08-17T13:53:36.876Z,25.70
2022-08-17T13:56:37.437Z,25.70
2022-08-17T13:59:13.879Z,25.70
2022-08-17T14:01:48.509Z,25.60
2022-08-17T14:04:27.981Z,25.60
2022-08-17T14:06:57.041Z,25.60
2022-08-17T14:09:36.832Z,25.60
2022-08-17T14:12:08.899Z,25.60
2022-08-17T14:14:36.387Z,25.60
2022-08-17T14:17:04.338Z,25.60
2022-08-17T14:19:31.380Z,25.60
2022-08-17T14:22:00.451Z,25.70
2022-08-17T14:24:33.707Z,25.70
2022-08-17T14:27:03.409Z,25.80
2022-08-17T14:29:33.270Z,25.80
2022-08-17T14:32:06.582Z,25.90
2022-08-17T14:34:33.591Z,25.90
2022-08-17T14:37:00.448Z,26.00
2022-08-17T14:39:28.759Z,26.00
2022-08-17T14:41:57.865Z,26.00
2022-08-17T14:44:24.949Z,26.00
2022-08-17T14:46:51.871Z,26.00
2022-08-17T14:49:20.652Z,26.10
2022-08-17T14:51:47.927Z,26.10
2022-08-17T14:54:29.433Z,26.10
2022-08-17T14:57:22.486Z,26.10
2022-08-17T14:59:54.245Z,26.20
2022-08-17T15:02:29.450Z,26.30
2022-08-17T15:05:03.957Z,26.30
2022-08-17T15:07:31.675Z,26.40
2022-08-17T15:10:02.454Z,26.40
2022-08-17T15:12:34.559Z,26.50
2022-08-17T15:15:06.223Z,26.60
2022-08-17T15:17:43.799Z,26.60
2022-08-17T15:20:28.472Z,26.60
2022-08-17T15:22:57.155Z,26.70
2022-08-17T15:25:26.239Z,26.70
2022-08-17T15:27:54.865Z,26.60
2022-08-17T15:30:22.537Z,26.60
2022-08-17T15:32:54.484Z,26.60
2022-08-17T15:35:27.416Z,26.60
2022-08-17T15:38:11.297Z,26.60
2022-08-17T15:40:42.765Z,26.60
2022-08-17T15:43:23.323Z,26.60
2022-08-17T15:46:12.270Z,26.60
2022-08-17T15:48:44.692Z,26.60
2022-08-17T15:51:15.057Z,26.60
2022-08-17T15:53:44.801Z,26.60
2022-08-17T15:56:13.647Z,26.60
2022-08-17T15:58:43.673Z,26.60
2022-08-17T16:01:16.764Z,26.60
2022-08-17T16:04:03.930Z,26.60
2022-08-17T16:06:32.432Z,26.60
2022-08-17T16:09:00.410Z,26.60
2022-08-17T16:11:27.304Z,26.50
2022-08-17T16:13:54.864Z,26.50
2022-08-17T16:16:23.625Z,26.50
2022-08-17T16:18:53.543Z,26.50
2022-08-17T16:21:25.760Z,26.50
2022-08-17T16:24:02.985Z,26.50
2022-08-17T16:26:31.827Z,26.50
2022-08-17T16:29:01.023Z,26.40
2022-08-17T16:31:28.101Z,26.40
2022-08-17T16:34:15.488Z,26.40
2022-08-17T16:36:55.795Z,26.40
2022-08-17T16:39:28.118Z,26.40
2022-08-17T16:41:56.302Z,26.40
2022-08-17T16:44:23.902Z,26.40
2022-08-17T16:46:51.108Z,26.40
2022-08-17T16:49:35.706Z,26.40
2022-08-17T16:52:05.312Z,26.40
2022-08-17T16:54:32.640Z,26.40
2022-08-17T16:56:59.528Z,26.40
2022-08-17T16:59:31.146Z,26.40
2022-08-17T17:02:15.701Z,26.50
2022-08-17T17:05:03.183Z,26.50
2022-08-17T17:07:37.733Z,26.40
2022-08-17T17:10:15.841Z,26.40
2022-08-17T17:13:03.756Z,26.40
2022-08-17T17:15:45.687Z,26.40
2022-08-17T17:18:15.281Z,26.50
2022-08-17T17:20:54.750Z,26.40
2022-08-17T17:23:34.950Z,26.50
2022-08-17T17:26:19.860Z,26.50
2022-08-17T17:28:56.240Z,26.40
2022-08-17T17:31:29.366Z,26.50
2022-08-17T17:34:00.531Z,26.50
2022-08-17T17:36:42.703Z,26.50
2022-08-17T17:39:43.757Z,26.60
2022-08-17T17:42:14.491Z,26.50
2022-08-17T17:45:09.620Z,26.60
2022-08-17T17:47:37.187Z,26.60
2022-08-17T17:50:07.573Z,26.60
2022-08-17T17:52:47.448Z,26.60
2022-08-17T17:55:37.393Z,26.70
2022-08-17T17:58:22.475Z,26.70
2022-08-17T18:01:01.091Z,26.70
2022-08-17T18:03:58.870Z,26.70
2022-08-17T18:07:12.337Z,26.70
2022-08-17T18:10:19.643Z,26.80
2022-08-17T18:13:35.438Z,26.80
2022-08-17T18:16:06.244Z,26.80
2022-08-17T18:18:39.035Z,26.80
2022-08-17T18:21:16.338Z,26.80
2022-08-17T18:23:59.778Z,26.80
2022-08-17T18:26:47.517Z,26.80
2022-08-17T18:29:32.203Z,26.80
2022-08-17T18:32:25.553Z,26.80
2022-08-17T18:35:18.010Z,26.80
2022-08-17T18:37:46.542Z,26.70
2022-08-17T18:40:19.693Z,26.70
2022-08-17T18:43:13.358Z,26.70
2022-08-17T18:45:45.957Z,26.70
2022-08-17T18:48:30.306Z,26.60
2022-08-17T18:51:40.770Z,26.50
2022-08-17T18:54:24.926Z,26.50
2022-08-17T18:57:02.032Z,26.30
2022-08-17T18:59:28.951Z,26.30
2022-08-17T19:02:27.241Z,26.20
2022-08-17T19:05:27.290Z,26.10
2022-08-17T19:07:54.818Z,26.10
2022-08-17T19:10:30.574Z,26.10
2022-08-17T19:13:31.239Z,26.10
2022-08-17T19:16:15.684Z,26.10
2022-08-17T19:18:56.052Z,26.10
2022-08-17T19:21:34.765Z,26.00
2022-08-17T19:24:29.972Z,25.90
2022-08-17T19:27:01.531Z,25.90
2022-08-17T19:29:38.830Z,25.80
2022-08-17T19:32:08.843Z,25.80
2022-08-17T19:34:37.615Z,25.70
2022-08-17T19:37:29.789Z,25.70
2022-08-17T19:40:41.884Z,25.60
2022-08-17T19:43:20.657Z,25.60
2022-08-17T19:46:07.728Z,25.60
2022-08-17T19:49:03.289Z,25.60
2022-08-17T19:52:06.573Z,25.60
2022-08-17T19:54:59.514Z,25.60
2022-08-17T19:57:50.613Z,25.60
2022-08-17T20:00:19.085Z,25.50
2022-08-17T20:03:06.179Z,25.40
2022-08-17T20:06:09.221Z,25.30
2022-08-17T20:08:40.054Z,25.30
2022-08-17T20:11:14.573Z,25.20
2022-08-17T20:13:49.011Z,25.20
2022-08-17T20:16:18.420Z,25.10
2022-08-17T20:19:02.796Z,25.00
2022-08-17T20:21:39.688Z,24.90
2022-08-17T20:24:20.159Z,24.90
2022-08-17T20:26:58.053Z,24.90
2022-08-17T20:29:39.971Z,24.90
2022-08-17T20:32:23.358Z,24.80
2022-08-17T20:35:19.366Z,24.80
2022-08-17T20:38:03.208Z,24.80
2022-08-17T20:40:35.232Z,24.80
2022-08-17T20:43:33.480Z,24.80
2022-08-17T20:46:03.505Z,24.90
2022-08-17T20:48:41.194Z,24.90
2022-08-17T20:52:01.475Z,25.00
2022-08-17T20:54:44.327Z,25.00
2022-08-17T20:57:33.299Z,25.00
2022-08-17T21:00:16.436Z,25.10
2022-08-17T21:03:12.145Z,25.10
2022-08-17T21:06:00.268Z,25.10
2022-08-17T21:08:34.303Z,25.00
2022-08-17T21:11:58.194Z,25.00
2022-08-17T21:14:31.621Z,25.00
2022-08-17T21:16:58.674Z,25.00
2022-08-17T21:20:09.815Z,25.00
2022-08-17T21:23:03.377Z,25.00
2022-08-17T21:25:57.687Z,25.10
2022-08-17T21:28:33.895Z,25.00
2022-08-17T21:31:09.078Z,25.10
2022-08-17T21:33:39.601Z,25.00
2022-08-17T21:36:12.325Z,25.00
2022-08-17T21:38:57.029Z,25.10
2022-08-17T21:41:45.539Z,25.10
2022-08-17T21:44:35.370Z,25.00
2022-08-17T21:47:20.417Z,25.00
2022-08-17T21:49:47.346Z,25.00
2022-08-17T21:52:17.784Z,24.90
2022-08-17T21:54:55.478Z,25.00
2022-08-17T21:57:27.539Z,25.00
2022-08-17T21:59:57.691Z,25.00
2022-08-17T22:02:29.549Z,24.90
2022-08-17T22:05:07.436Z,24.90
2022-08-17T22:07:36.580Z,24.90
2022-08-17T22:10:05.867Z,24.80
2022-08-17T22:12:32.779Z,24.80
2022-08-17T22:15:07.408Z,24.80
2022-08-17T22:17:37.880Z,24.70
2022-08-17T22:20:10.534Z,24.80
2022-08-17T22:23:18.134Z,24.80
2022-08-17T22:26:05.940Z,24.80
2022-08-17T22:28:42.322Z,24.70
2022-08-17T22:31:14.531Z,24.70
2022-08-17T22:33:41.578Z,24.70
2022-08-17T22:36:19.456Z,24.70
2022-08-17T22:38:49.977Z,24.70
2022-08-17T22:41:37.639Z,24.70
2022-08-17T22:44:24.176Z,24.60
2022-08-17T22:47:22.998Z,24.60
2022-08-17T22:49:57.853Z,24.60
2022-08-17T22:52:56.768Z,24.60
2022-08-17T22:55:43.219Z,24.60
2022-08-17T22:58:31.527Z,24.60
2022-08-17T23:01:32.625Z,24.60
2022-08-17T23:04:03.079Z,24.60
2022-08-17T23:06:33.850Z,24.60
2022-08-17T23:09:03.962Z,24.60
2022-08-17T23:11:49.547Z,24.60
2022-08-17T23:14:21.507Z,24.60
2022-08-17T23:16:53.084Z,24.60
2022-08-17T23:19:21.888Z,24.60
2022-08-17T23:21:51.006Z,24.50
2022-08-17T23:24:23.219Z,24.50
2022-08-17T23:26:50.305Z,24.50
2022-08-17T23:29:17.201Z,24.50
2022-08-17T23:31:44.118Z,24.50
2022-08-17T23:34:13.970Z,24.50
2022-08-17T23:36:42.059Z,24.50
2022-08-17T23:39:08.980Z,24.50
2022-08-17T23:41:39.971Z,24.50
2022-08-17T23:44:07.399Z,24.50
2022-08-17T23:46:34.821Z,24.50
2022-08-17T23:49:01.788Z,24.50
2022-08-17T23:51:38.198Z,24.50
2022-08-17T23:54:26.633Z,24.50
2022-08-17T23:56:53.688Z,24.50
2022-08-17T23:59:22.690Z,24.50
